Airfield :
LOGIN :

Register | Disclaimer

   EN    FR    IT 

 










Legend :    VFR   Marginal VFR   IFR   Intensive IFR   Very Intensive IFR
Visi :
Ceiling :
>= 8 km
>= 3000ft
5 to 8 km
1000 to 3000 ft
1500m to 5 km
500 to 1000 ft
800 to 1500m
200 to 500 ft
< 800m
< 200 ft
Symbols :   Thunderstorms  Fog  Heavy snow  Heavy precipitations  Wind > 20 kt
SIGMETs :     Misc.  Thunderstorms  Icing  Turbulence  Mountain Waves  Volcanic Ashes







- Airport Elevation : 299 ft
- IATA code : EDM
- Download approach charts


LFRI - La Roche Sur Yon - Les Ajoncs

CURRENT METAR :
  • 262030Z AUTO 00000KT CAVOK 09/05 Q1017 NOSIG

EXPIRED METARs :
  • 262000Z AUTO 25002KT CAVOK 10/05 Q1018 NOSIG
  • 261930Z AUTO 25002KT CAVOK 11/06 Q1018 NOSIG
  • 261900Z AUTO 26004KT CAVOK 12/06 Q1018 NOSIG
  • 261830Z AUTO 26005KT 230V290 CAVOK 13/06 Q1018 NOSIG
  • 261800Z AUTO 26007KT 240V300 9999 FEW046 14/06 Q1018 NOSIG

TAF TAF LFRI
Valid from the 26 at 18:00 until the 27 at 18:00 UTC


261700Z 2618/2718 27006KT 9999 SCT045
BECMG 2619/2621 VRB02KT
BECMG 2703/2705 15005KT
BECMG 2708/2710 21015G25KT
TEMPO 2713/2717 23018G35KT
No reported NOTAMs for that airfield.



MET'MAP, your aeronautical weather chart ! - Copyright ORBIFLY December 2007 - Disclaimer

ORBIFLY MET'MAP TEAM :

Programming & Development : Alexandra Zaïnal
Concept & Development : Baudouin d'Aumeries
Co-Development & Prog : Marc-Olivier Méhu
Technical & hardware support : Manuel Goepfert

Contact : metmap@orbifly.com




SOURCES & CREDITS :

   NOAA